createdAt,value
2019-03-29T00:02:44.868Z,32.08
2019-03-29T00:06:12.560Z,30.43
2019-03-29T00:09:26.382Z,28.80
2019-03-29T00:13:14.423Z,31.03
2019-03-29T00:15:28.364Z,30.73
2019-03-29T00:21:36.640Z,36.07
2019-03-29T00:24:41.368Z,29.07
2019-03-29T00:28:06.690Z,32.23
2019-03-29T00:31:10.356Z,28.30
2019-03-29T00:34:05.348Z,30.57
2019-03-29T00:36:41.794Z,31.23
2019-03-29T00:41:57.569Z,28.87
2019-03-29T00:44:45.447Z,30.20
2019-03-29T00:47:22.655Z,31.50
2019-03-29T00:50:00.364Z,29.70
2019-03-29T00:52:45.499Z,29.77
2019-03-29T00:55:20.953Z,33.00
2019-03-29T00:57:58.572Z,27.30
2019-03-29T01:00:39.625Z,29.40
2019-03-29T01:03:17.562Z,29.60
2019-03-29T01:05:54.235Z,31.17
2019-03-29T01:08:26.238Z,29.33
2019-03-29T01:11:16.275Z,28.73
2019-03-29T01:13:59.370Z,28.83
2019-03-29T01:16:40.516Z,28.40
2019-03-29T01:19:38.492Z,27.70
2019-03-29T01:22:06.203Z,26.60
2019-03-29T01:24:43.325Z,27.20
2019-03-29T01:27:31.818Z,28.13
2019-03-29T01:30:23.035Z,29.47
2019-03-29T01:33:05.854Z,27.03
2019-03-29T01:35:47.794Z,26.50
2019-03-29T01:38:23.975Z,28.00
2019-03-29T01:41:09.148Z,28.80
2019-03-29T01:43:49.202Z,29.33
2019-03-29T01:46:24.349Z,28.77
2019-03-29T01:49:06.000Z,29.60
2019-03-29T01:51:51.308Z,28.20
2019-03-29T01:54:54.219Z,28.93
2019-03-29T01:57:26.683Z,28.15
2019-03-29T02:00:05.116Z,32.23
2019-03-29T02:02:47.139Z,26.70
2019-03-29T02:05:31.001Z,29.97
2019-03-29T02:08:08.117Z,28.93
2019-03-29T02:10:45.963Z,28.33
2019-03-29T02:13:26.093Z,26.77
2019-03-29T02:16:09.425Z,28.80
2019-03-29T02:18:42.788Z,26.83
2019-03-29T02:21:31.125Z,29.10
2019-03-29T02:24:15.874Z,28.90
2019-03-29T02:26:49.997Z,30.07
2019-03-29T02:29:39.444Z,27.70
2019-03-29T02:33:06.646Z,27.17
2019-03-29T02:36:14.481Z,26.20
2019-03-29T02:38:59.107Z,27.70
2019-03-29T02:41:43.599Z,28.40
2019-03-29T02:44:22.968Z,27.70
2019-03-29T02:47:12.613Z,26.40
2019-03-29T02:49:59.973Z,28.23
2019-03-29T02:52:51.221Z,27.87
2019-03-29T02:55:41.294Z,27.10
2019-03-29T02:58:16.187Z,28.83
2019-03-29T03:00:52.072Z,29.17
2019-03-29T03:03:30.680Z,28.13
2019-03-29T03:06:14.466Z,27.00
2019-03-29T03:08:52.544Z,27.83
2019-03-29T03:11:28.696Z,28.93
2019-03-29T03:14:07.979Z,26.73
2019-03-29T03:16:44.970Z,26.80
2019-03-29T03:19:21.450Z,27.57
2019-03-29T03:21:58.786Z,26.97
2019-03-29T03:24:42.574Z,28.93
2019-03-29T03:27:28.544Z,29.27
2019-03-29T03:30:07.789Z,28.03
2019-03-29T03:32:54.734Z,28.00
2019-03-29T03:35:39.198Z,26.60
2019-03-29T03:38:44.703Z,27.80
2019-03-29T03:41:24.875Z,28.53
2019-03-29T03:44:10.728Z,29.17
2019-03-29T03:46:45.224Z,27.07
2019-03-29T03:49:18.576Z,27.60
2019-03-29T03:52:00.064Z,27.10
2019-03-29T03:54:37.918Z,27.93
2019-03-29T03:57:13.636Z,26.70
2019-03-29T03:59:53.477Z,27.53
2019-03-29T04:02:30.146Z,28.03
2019-03-29T04:05:07.158Z,27.20
2019-03-29T04:07:45.252Z,30.40
2019-03-29T04:10:25.443Z,27.50
2019-03-29T04:13:04.438Z,29.20
2019-03-29T04:15:56.379Z,28.07
2019-03-29T04:18:31.407Z,28.43
2019-03-29T04:21:14.825Z,29.20
2019-03-29T04:24:37.960Z,28.20
2019-03-29T04:27:17.989Z,28.90
2019-03-29T04:29:54.369Z,29.07
2019-03-29T04:32:30.411Z,29.50
2019-03-29T04:35:14.076Z,26.20
2019-03-29T04:37:53.079Z,30.00
2019-03-29T04:43:45.900Z,28.73
2019-03-29T04:46:21.879Z,27.23
2019-03-29T04:49:40.516Z,27.93
2019-03-29T04:52:39.792Z,29.57
2019-03-29T04:56:00.684Z,28.20
2019-03-29T05:02:13.723Z,29.43
2019-03-29T05:04:52.323Z,31.40
2019-03-29T05:07:53.045Z,29.97
2019-03-29T05:10:25.874Z,28.87
2019-03-29T05:16:21.247Z,29.73
2019-03-29T05:19:28.947Z,29.03
2019-03-29T05:22:06.086Z,28.70
2019-03-29T05:24:40.249Z,30.10
2019-03-29T05:27:34.036Z,30.60
2019-03-29T05:30:26.359Z,29.65
2019-03-29T05:33:41.911Z,29.90
2019-03-29T05:36:58.665Z,29.53
2019-03-29T05:47:13.726Z,28.67
2019-03-29T05:53:08.756Z,32.20
2019-03-29T05:55:53.193Z,26.80
2019-03-29T05:59:10.393Z,26.77
2019-03-29T06:02:33.257Z,25.30
2019-03-29T06:05:35.873Z,26.13
2019-03-29T06:08:24.045Z,25.63
2019-03-29T06:11:21.444Z,23.40
2019-03-29T06:14:14.398Z,28.77
2019-03-29T06:17:48.945Z,32.35
2019-03-29T06:21:10.291Z,30.00
2019-03-29T06:28:02.309Z,26.03
2019-03-29T06:48:00.516Z,24.10
2019-03-29T06:51:22.294Z,23.40
2019-03-29T06:54:35.251Z,21.97
2019-03-29T06:58:08.044Z,23.50
2019-03-29T07:01:32.651Z,38.93
2019-03-29T07:04:45.843Z,23.42
2019-03-29T07:08:21.118Z,23.97
2019-03-29T07:11:18.303Z,20.67
2019-03-29T07:14:45.263Z,19.17
2019-03-29T07:17:50.708Z,21.23
2019-03-29T07:21:01.787Z,17.50
2019-03-29T07:27:54.576Z,18.47
2019-03-29T07:31:03.672Z,16.30
2019-03-29T07:34:17.158Z,18.53
2019-03-29T07:37:31.162Z,17.90
2019-03-29T07:40:44.027Z,16.60
2019-03-29T07:47:15.181Z,13.43
2019-03-29T07:50:08.225Z,15.10
2019-03-29T07:53:06.823Z,15.57
2019-03-29T07:56:06.969Z,13.67
2019-03-29T07:59:12.322Z,14.13
2019-03-29T08:08:40.600Z,15.30
2019-03-29T08:17:04.135Z,13.43
2019-03-29T08:19:37.107Z,9.50
2019-03-29T08:22:23.822Z,8.80
2019-03-29T08:25:27.415Z,9.50
2019-03-29T08:32:38.667Z,8.60
2019-03-29T08:36:01.015Z,9.40
2019-03-29T08:38:57.664Z,9.40
2019-03-29T08:42:12.275Z,10.03
2019-03-29T08:45:36.131Z,9.87
2019-03-29T08:48:48.875Z,9.10
2019-03-29T08:52:00.516Z,10.23
2019-03-29T08:55:17.663Z,11.00
2019-03-29T08:58:29.520Z,10.00
2019-03-29T09:02:06.320Z,12.37
2019-03-29T09:05:29.001Z,9.30
2019-03-29T09:09:21.949Z,10.90
2019-03-29T09:15:22.502Z,9.53
2019-03-29T09:18:25.956Z,8.97
2019-03-29T09:21:49.640Z,9.48
2019-03-29T09:28:32.716Z,7.70
2019-03-29T09:31:38.036Z,9.40
2019-03-29T09:34:28.702Z,8.97
2019-03-29T09:41:22.070Z,8.40
2019-03-29T09:45:21.460Z,9.40
2019-03-29T09:48:48.660Z,9.50
2019-03-29T09:52:26.354Z,9.43
2019-03-29T10:39:12.663Z,7.10
2019-03-29T10:42:56.684Z,7.70
2019-03-29T10:49:58.509Z,5.43
2019-03-29T10:53:57.564Z,6.13
2019-03-29T10:57:00.883Z,8.47
2019-03-29T11:00:32.597Z,8.70
2019-03-29T11:03:46.679Z,10.00
2019-03-29T11:07:14.820Z,10.30
2019-03-29T11:10:23.760Z,10.50
2019-03-29T11:14:05.890Z,9.53
2019-03-29T11:17:25.917Z,8.73
2019-03-29T11:21:12.288Z,8.50
2019-03-29T11:24:44.331Z,8.40
2019-03-29T11:31:11.111Z,7.60
2019-03-29T11:34:39.679Z,7.17
2019-03-29T11:38:26.805Z,7.77
2019-03-29T11:41:57.721Z,8.07
2019-03-29T11:49:31.398Z,6.90
2019-03-29T12:00:45.451Z,6.60
2019-03-29T12:30:56.853Z,4.97
2019-03-29T12:37:55.546Z,5.07
2019-03-29T12:41:35.230Z,4.67
2019-03-29T13:42:26.162Z,7.57
2019-03-29T17:33:11.439Z,3.10
2019-03-29T17:40:37.547Z,7.20
2019-03-29T17:51:48.562Z,3.77
2019-03-29T17:59:14.001Z,3.73
2019-03-29T19:07:22.903Z,9.53
2019-03-29T19:40:24.598Z,9.70
2019-03-29T20:23:48.081Z,11.77
2019-03-29T20:31:25.919Z,10.90
2019-03-29T21:58:07.528Z,6.67
2019-03-29T22:02:06.170Z,7.00
2019-03-29T22:13:53.543Z,6.90
2019-03-29T22:21:33.885Z,6.67
2019-03-29T23:37:01.631Z,8.90
2019-03-29T23:40:58.238Z,7.23
2019-03-29T23:48:39.625Z,6.53
